Four Corners, Iowa
Current Conditions -  °F | °C
As of 8:15 AM on Monday 20 Oct 2014 (Local Time) from KFFL Reporting Station
Clear Clear  
Wind Chill: 43°   Ceiling: Unl
Heat Index: 46°   Visibility: NA
Dew Point: 43°   Wind: 7mph
Humidity: 87%   Direction: 300°WNW
Pressure: 29.98"   Gusts: NA
Location:  41.03°N, 91.778°W
Report Text: KFFL 201315Z AUTO 30006KT CLR 08/06 A2998 RMK AO2
Loading
Personal Weather Stations






























Interactive Weather Map
Tropical Storm Tracking
New forecast layout! Learn more

10-Day Weather Forecast

Advertisements
Track Severe Weather on mobile